CheckWX is a tool to help pilots better visualize weather data.  It is not intended as a substitute for an official pre-flight weather briefing.

01:09:58 UTC

DAUH METAR
Oued Irara Airport
Hassi Messaoud, Algeria
Current

40 mins ago

DAUH 200030Z 05007KT CAVOK 31/10 Q1013
Observed
Jul-20 @ 00:30 UTC
Wind
  • 050° at 7 KTS
Visibility
10,000+ meters
Flight Rules
VFR
Cloud Levels
  • Clear skies
Temperature
31°C / 88°F
Dewpoint
10°C / 50°F
Humidity
27%
Altimeter
29.91" Hg
Pressure
1012.92 hPa
Previous

1 hour ago

DAUH 200000Z 05007KT CAVOK 32/10 Q1013
Observed
Jul-20 @ 00:00 UTC
Wind
  • 050° at 7 KTS
Visibility
10,000+ meters
Flight Rules
VFR
Cloud Levels
  • Clear skies
Temperature
32°C / 90°F
Dewpoint
10°C / 50°F
Humidity
26%
Altimeter
29.91" Hg
Pressure
1012.92 hPa
Previous

2 hours ago

DAUH 192330Z 06006KT CAVOK 32/10 Q1013
Observed
Jul-19 @ 23:30 UTC
Wind
  • 060° at 6 KTS
Visibility
10,000+ meters
Flight Rules
VFR
Cloud Levels
  • Clear skies
Temperature
32°C / 90°F
Dewpoint
10°C / 50°F
Humidity
26%
Altimeter
29.91" Hg
Pressure
1012.92 hPa